Data for 07/26/2010

Time Sea-Level Adjusted Pressure Absolute Pressure Temperature Relative Humidity Dew Point   
(mb) (inHg) (mb) (inHg) (C) (F) (%) (C) (F)
00:05 1017 30.03 847 25.01 19.5 67.2 34 3.6 38.4
00:10 1017 30.03 847 25.01 19.4 66.9 36 4 39.2
00:15 1017 30.03 847 25.01 19.3 66.7 36 3.8 38.8
00:20 1017 30.03 847 25.01 19.5 67.1 35 3.9 39
00:25 1018 30.06 847 25.01 19.2 66.5 35 3.6 38.5
00:30 1018 30.06 847 25.01 19.2 66.5 39 5 40.9
00:35 1018 30.06 847 25.01 18.8 65.8 37 3.8 38.8
00:40 1018 30.06 847 25.01 18.5 65.4 40 4.8 40.6
00:45 1018 30.06 847 25.01 18.1 64.5 40 4.5 40.1
00:50 1018 30.06 847 25.01 17.9 64.2 42 5 41
00:55 1018 30.06 847 25.01 17.7 63.9 39 3.6 38.4
01:00 1018 30.06 847 25.01 18.2 64.7 40 4.4 39.8
01:05 1018 30.06 847 25.01 18 64.3 38 3.5 38.3
01:10 1018 30.06 847 25.01 18 64.5 38 3.7 38.6
01:15 1018 30.06 847 25.01 18.1 64.6 37 3.4 38.2
01:20 1018 30.06 847 25.01 18.2 64.7 37 3.5 38.3
01:25 1018 30.06 847 25.01 18 64.5 36 2.9 37.2
01:30 1018 30.06 847 25.01 18.2 64.8 38 3.7 38.7
01:35 1018 30.06 847 25.01 18.1 64.6 35 2.7 36.8
01:40 1018 30.06 847 25.01 18.6 65.4 34 2.7 36.8
01:45 1018 30.06 847 25.01 18.3 64.9 36 3.2 37.8
01:50 1018 30.06 847 25.01 18.1 64.7 33 1.8 35.2
01:55 1018 30.06 847 25.01 18.5 65.4 33 2.2 36
02:00 1018 30.06 847 25.01 18.6 65.4 35 2.8 37
02:05 1018 30.06 847 25.01 18.2 64.8 38 3.6 38.5
02:10 1018 30.06 847 25.01 17.9 64.3 42 4.8 40.7
02:15 1018 30.06 847 25.01 18.1 64.5 39 4 39.2
02:20 1018 30.06 847 25.01 17.8 64.1 41 4.3 39.8
02:25 1018 30.06 847 25.01 17.5 63.5 38 3.2 37.7
02:30 1017 30.03 847 25.01 17.2 63 37 2.6 36.7
02:35 1017 30.03 847 25.01 17.3 63.2 36 2.3 36.2
02:40 1017 30.03 847 25.01 17.7 63.9 35 2 35.6
02:45 1017 30.03 847 25.01 17.7 63.9 37 2.9 37.2
02:50 1017 30.03 847 25.01 17.3 63.1 41 4.2 39.5
02:55 1017 30.03 847 25.01 16.7 62 40 3.1 37.6
03:00 1017 30.03 847 25.01 17.2 63 38 2.8 37.1
03:05 1017 30.03 847 25.01 17.8 64.1 37 2.9 37.3
03:10 1017 30.03 847 25.01 17.6 63.7 38 3.1 37.5
03:15 1017 30.03 846 24.98 17.5 63.5 39 3.4 38.1
03:20 1017 30.03 846 24.98 17.5 63.6 39 3.6 38.4
03:25 1017 30.03 846 24.98 17.5 63.4 38 3.2 37.8
03:30 1017 30.03 846 24.98 17.1 62.7 42 4 39.2
03:35 1017 30.03 846 24.98 16.6 61.9 41 3.4 38.2
03:40 1017 30.03 846 24.98 16.8 62.3 39 2.8 37.1
03:45 1017 30.03 847 25.01 17.3 63.2 37 2.5 36.5
03:50 1017 30.03 847 25.01 17.8 64.1 35 2.5 36.4
03:55 1017 30.03 846 24.98 18 64.4 35 2.6 36.6
04:00 1017 30.03 846 24.98 17.9 64.3 36 2.8 37.1
04:05 1017 30.03 846 24.98 17.7 63.8 38 3.1 37.7
04:10 1017 30.03 846 24.98 17.2 62.9 40 3.5 38.3
04:15 1017 30.03 846 24.98 16.8 62.2 41 3.5 38.4
04:20 1017 30.03 846 24.98 16.4 61.6 43 3.8 38.9
04:25 1017 30.03 846 24.98 16.4 61.5 43 3.8 38.8
04:30 1017 30.03 847 25.01 16.2 61.2 43 3.7 38.7
04:35 1017 30.03 846 24.98 16.2 61.2 43 3.8 38.9
04:40 1017 30.03 847 25.01 16.1 60.9 43 3.8 38.8
04:45 1017 30.03 847 25.01 16.1 61 43 3.7 38.6
04:50 1017 30.03 847 25.01 16.3 61.4 42 3.5 38.4
04:55 1017 30.03 847 25.01 16.8 62.2 41 3.5 38.3
05:00 1017 30.03 847 25.01 16.6 61.8 42 3.7 38.6
05:05 1017 30.03 847 25.01 16.4 61.5 42 3.4 38.1
05:10 1017 30.03 847 25.01 16.5 61.7 41 3.4 38.1
05:15 1018 30.06 847 25.01 16.8 62.3 40 3.1 37.6
05:20 1018 30.06 847 25.01 16.7 62.1 40 3.1 37.6
05:25 1018 30.06 847 25.01 17 62.5 40 3.3 37.9
05:30 1018 30.06 847 25.01 17.2 62.9 39 3.1 37.5
05:35 1018 30.06 847 25.01 17.1 62.8 38 2.8 37.1
05:40 1018 30.06 847 25.01 16.9 62.4 38 2.8 37
05:45 1017 30.03 847 25.01 16.8 62.3 41 3.7 38.6
05:50 1017 30.03 847 25.01 16.7 62 39 2.9 37.2
05:55 1017 30.03 847 25.01 16.6 61.8 40 3.2 37.7
06:00 1018 30.06 847 25.01 16.4 61.6 41 3.3 38
06:05 1017 30.03 847 25.01 16.4 61.5 39 2.7 36.8
06:10 1017 30.03 847 25.01 16.5 61.7 40 2.9 37.3
06:15 1017 30.03 847 25.01 16.6 61.8 41 3.3 38
06:20 1017 30.03 847 25.01 16.3 61.3 41 3.2 37.7
06:25 1017 30.03 847 25.01 16.5 61.8 43 3.9 39.1
06:30 1017 30.03 847 25.01 16.9 62.4 40 3.2 37.8
06:35 1018 30.06 847 25.01 16.8 62.3 40 3.4 38.1
06:40 1018 30.06 847 25.01 16.8 62.2 40 3.2 37.8
06:45 1018 30.06 847 25.01 16.8 62.3 42 3.9 39.1
06:50 1018 30.06 847 25.01 17 62.6 39 3 37.4
06:55 1018 30.06 847 25.01 17.2 62.9 42 4.2 39.6
07:00 1018 30.06 847 25.01 17.6 63.6 37 2.7 36.9
07:05 1018 30.06 847 25.01 17.6 63.8 40 4.1 39.4
07:10 1018 30.06 847 25.01 17.3 63.2 43 4.6 40.4
07:15 1018 30.06 847 25.01 16.9 62.4 44 4.5 40.1
07:20 1018 30.06 847 25.01 16.8 62.3 45 5 41
07:25 1018 30.06 847 25.01 17.2 63 45 5.3 41.5
07:30 1018 30.06 847 25.01 17.6 63.6 41 4.3 39.8
07:35 1018 30.06 847 25.01 18.3 65 41 5 41
07:40 1018 30.06 847 25.01 19 66.1 39 4.7 40.4
07:45 1018 30.06 847 25.01 19 66.2 44 6.7 44
07:50 1018 30.06 847 25.01 19.1 66.3 40 5.1 41.2
07:55 1018 30.06 847 25.01 19.3 66.7 39 5 41
08:00 1018 30.06 847 25.01 19.9 67.8 37 5 41
08:05 1018 30.06 847 25.01 19.9 67.8 38 5.5 41.8
08:10 1018 30.06 847 25.01 19 66.2 41 5.6 42.1
08:15 1018 30.06 847 25.01 18.9 65.9 42 5.7 42.2
08:20 1018 30.06 847 25.01 19.1 66.4 42 5.9 42.6
08:25 1018 30.06 847 25.01 19.5 67 40 5.5 41.9
08:30 1018 30.06 847 25.01 19.7 67.4 41 6.1 43
08:35 1018 30.06 847 25.01 19.4 66.9 43 6.6 43.9
08:40 1018 30.06 847 25.01 19.2 66.5 41 5.6 42.1
08:45 1018 30.06 847 25.01 19.4 66.9 38 4.9 40.9
08:50 1018 30.06 847 25.01 19.7 67.4 39 5.6 42
08:55 1018 30.06 847 25.01 19.8 67.6 41 6.4 43.4
09:00 1018 30.06 847 25.01 20.2 68.3 37 5.1 41.1
09:05 1018 30.06 847 25.01 20.4 68.7 42 7.2 45
09:10 1018 30.06 848 25.04 20.6 69.1 40 6.7 44
09:15 1018 30.06 848 25.04 20.4 68.8 44 7.8 46.1
09:20 1018 30.06 848 25.04 20.5 68.9 38 5.9 42.5
09:25 1018 30.06 848 25.04 20.7 69.2 39 6.3 43.4
09:30 1018 30.06 848 25.04 20.9 69.6 36 5.4 41.7
09:35 1018 30.06 848 25.04 21.4 70.5 36 6 42.8
09:40 1019 30.09 848 25.04 21.9 71.4 34 5.3 41.6
09:45 1018 30.06 848 25.04 22.3 72.1 33 5.5 42
09:50 1019 30.09 848 25.04 22.5 72.5 32 5.1 41.2
09:55 1019 30.09 848 25.04 22.6 72.7 33 5.9 42.7
10:00 1019 30.09 848 25.04 22.1 71.7 32 4.8 40.6
10:05 1019 30.09 848 25.04 21.8 71.3 33 5.2 41.3
10:10 1019 30.09 848 25.04 22.3 72.1 34 5.7 42.2
10:15 1018 30.06 848 25.04 22.8 73 30 4.5 40.1
10:20 1018 30.06 848 25.04 23.1 73.6 32 5.7 42.3
10:25 1019 30.09 848 25.04 23.2 73.7 32 5.6 42.2
10:30 1019 30.09 848 25.04 23.6 74.5 32 6 42.8
10:35 1019 30.09 848 25.04 23.9 75 29 4.9 40.9
10:40 1019 30.09 848 25.04 24.1 75.3 30 5.8 42.4
10:45 1019 30.09 848 25.04 24 75.1 30 5.4 41.8
10:50 1019 30.09 848 25.04 23.9 75 30 5.3 41.5
10:55 1019 30.09 848 25.04 24 75.2 31 5.9 42.7
11:00 1019 30.09 848 25.04 23.5 74.3 32 6 42.8
11:05 1019 30.09 848 25.04 23.3 73.9 32 5.7 42.2
11:10 1019 30.09 848 25.04 23.5 74.3 31 5.5 41.9
11:15 1019 30.09 848 25.04 23.9 75.1 29 5.2 41.4
11:20 1019 30.09 848 25.04 24.6 76.2 29 5.5 42
11:25 1019 30.09 848 25.04 25 77 28 5.7 42.2
11:30 1019 30.09 848 25.04 24.9 76.7 29 5.9 42.7
11:35 1019 30.09 848 25.04 23.8 74.8 30 5.6 42.1
11:40 1019 30.09 848 25.04 23.5 74.4 31 5.7 42.2
11:45 1019 30.09 848 25.04 23.5 74.3 30 5.2 41.4
11:50 1019 30.09 848 25.04 24 75.1 30 5.3 41.6
11:55 1019 30.09 848 25.04 24.2 75.5 31 6.2 43.2
12:00 1018 30.06 848 25.04 23.5 74.4 31 5.7 42.3
12:05 1018 30.06 848 25.04 23.1 73.5 33 6 42.8
12:10 1018 30.06 848 25.04 23 73.4 29 4.3 39.7
12:15 1018 30.06 847 25.01 23 73.4 31 5.4 41.7
12:20 1018 30.06 848 25.04 23.1 73.6 31 5.2 41.3
12:25 1018 30.06 848 25.04 23.5 74.2 30 5.1 41.1
12:30 1018 30.06 848 25.04 23.8 74.8 30 5.2 41.4
12:35 1018 30.06 848 25.04 23.7 74.7 29 4.7 40.5
12:40 1018 30.06 848 25.04 23 73.5 30 4.7 40.4
12:45 1018 30.06 848 25.04 23 73.4 30 4.9 40.8
12:50 1018 30.06 848 25.04 23.3 73.9 30 5.1 41.1
12:55 1019 30.09 848 25.04 23.4 74.2 30 5 41
13:00 1019 30.09 848 25.04 23 73.3 30 4.8 40.6
13:05 1019 30.09 848 25.04 22.8 73.1 31 4.8 40.7
13:10 1019 30.09 848 25.04 22.8 73.1 31 4.8 40.7
13:15 1019 30.09 848 25.04 23.1 73.7 29 4.3 39.8
13:20 1019 30.09 848 25.04 23.5 74.4 30 5.1 41.2
13:25 1019 30.09 848 25.04 23.7 74.7 30 5.3 41.5
13:30 1019 30.09 848 25.04 23.7 74.6 30 5.3 41.5
13:35 1019 30.09 848 25.04 23.1 73.6 30 4.9 40.8
13:40 1019 30.09 848 25.04 22.9 73.2 30 4.8 40.7
13:45 1019 30.09 848 25.04 22.8 73 31 4.8 40.7
13:50 1019 30.09 848 25.04 22.5 72.4 31 4.9 40.8
13:55 1019 30.09 848 25.04 22.6 72.7 32 5.4 41.8
14:00 1019 30.09 848 25.04 23.1 73.6 31 5.5 41.8
14:05 1019 30.09 848 25.04 23.6 74.4 32 6 42.8
14:10 1019 30.09 848 25.04 23.8 74.8 32 6.3 43.3
14:15 1019 30.09 848 25.04 23 73.4 32 5.8 42.5
14:20 1019 30.09 848 25.04 23 73.3 32 5.7 42.2
14:25 1018 30.06 848 25.04 23.1 73.7 34 6.6 43.9
14:30 1018 30.06 847 25.01 23 73.4 37 7.7 45.9
14:35 1018 30.06 847 25.01 23.3 73.9 35 7.3 45.1
14:40 1018 30.06 848 25.04 23.1 73.6 37 7.8 46
14:45 1018 30.06 848 25.04 22.8 73 38 7.8 46.1
14:50 1018 30.06 848 25.04 22.8 73.1 37 7.7 45.9
14:55 1018 30.06 848 25.04 22.9 73.2 36 7.1 44.8
15:00 1018 30.06 848 25.04 22.9 73.3 36 7.2 45
15:05 1018 30.06 847 25.01 23.4 74.1 34 6.9 44.4
15:10 1018 30.06 847 25.01 23.3 74 39 8.7 47.6
15:15 1018 30.06 847 25.01 23.4 74.2 38 8.5 47.3
15:20 1018 30.06 847 25.01 23.7 74.6 36 7.8 46.1
15:25 1018 30.06 847 25.01 24 75.2 32 6.7 44
15:30 1018 30.06 847 25.01 24.4 75.8 33 7.4 45.3
15:35 1018 30.06 847 25.01 24.7 76.4 32 7 44.6
15:40 1018 30.06 847 25.01 24.9 76.9 29 5.7 42.3
15:45 1018 30.06 847 25.01 25.2 77.3 27 5 41
15:50 1018 30.06 847 25.01 25.2 77.3 25 4.2 39.6
15:55 1018 30.06 847 25.01 25 76.9 27 5.1 41.2
16:00 1018 30.06 847 25.01 24.8 76.6 31 6.7 44.1
16:05 1018 30.06 847 25.01 25 76.9 28 5.5 41.9
16:10 1018 30.06 847 25.01 25.1 77.2 27 5.3 41.5
16:15 1017 30.03 847 25.01 25.1 77.2 30 6.6 43.8
16:20 1018 30.06 847 25.01 25.5 77.8 28 5.8 42.4
16:25 1017 30.03 847 25.01 25.8 78.4 25 4.7 40.5
16:30 1017 30.03 847 25.01 26.2 79.2 26 5.4 41.7
16:35 1017 30.03 846 24.98 26.3 79.3 23 3.7 38.6
16:40 1017 30.03 846 24.98 26.3 79.3 24 4.6 40.2
16:45 1017 30.03 846 24.98 26 78.8 24 3.9 39.1
16:50 1017 30.03 846 24.98 25.8 78.4 25 4.3 39.8
16:55 1017 30.03 847 25.01 25.7 78.3 25 4.4 39.9
17:00 1017 30.03 847 25.01 25.9 78.7 24 4.1 39.3
17:05 1017 30.03 847 25.01 26.3 79.3 25 4.7 40.4
17:10 1017 30.03 847 25.01 26.3 79.4 25 4.8 40.6
17:15 1017 30.03 847 25.01 26.1 79 25 4.9 40.8
17:20 1017 30.03 847 25.01 26.2 79.1 23 4 39.2
17:25 1017 30.03 846 24.98 26 78.9 25 4.9 40.9
17:30 1017 30.03 846 24.98 25.6 78.1 28 5.9 42.6
17:35 1017 30.03 846 24.98 25.6 78.1 28 5.8 42.4
17:40 1017 30.03 846 24.98 25.6 78.1 27 5.2 41.4
17:45 1017 30.03 846 24.98 25.6 78.1 27 5.6 42
17:50 1017 30.03 846 24.98 25.7 78.2 27 5.8 42.4
17:55 1017 30.03 846 24.98 25.8 78.4 28 6.1 42.9
18:00 1017 30.03 846 24.98 25.9 78.6 27 6 42.8
18:05 1017 30.03 846 24.98 25.9 78.7 27 5.8 42.5
18:10 1017 30.03 846 24.98 25.7 78.2 27 5.5 41.9
18:15 1017 30.03 847 25.01 25.2 77.4 32 7.5 45.5
18:20 1017 30.03 847 25.01 25 76.9 30 6.5 43.7
18:25 1017 30.03 847 25.01 24.8 76.6 32 7.2 44.9
18:30 1017 30.03 847 25.01 24.5 76.1 34 7.7 45.9
18:35 1017 30.03 847 25.01 24.2 75.6 35 8.2 46.7
18:40 1017 30.03 847 25.01 24.2 75.5 36 8.4 47
18:45 1017 30.03 847 25.01 24 75.2 39 9.3 48.7
18:50 1017 30.03 847 25.01 23.9 75 39 9.2 48.6
18:55 1017 30.03 847 25.01 23.6 74.6 39 9.2 48.6
19:00 1017 30.03 847 25.01 23.6 74.5 43 10.4 50.6
19:05 1017 30.03 846 24.98 23.5 74.2 43 10.5 50.8
19:10 1017 30.03 846 24.98 23.2 73.7 45 10.8 51.5
19:15 1017 30.03 846 24.98 23.2 73.7 44 10.3 50.6
19:20 1017 30.03 846 24.98 23.3 74 43 10.2 50.3
19:25 1017 30.03 846 24.98 23.5 74.2 40 9.4 49
19:30 1017 30.03 846 24.98 23.5 74.3 42 10.1 50.3
19:35 1017 30.03 846 24.98 23.4 74 45 10.9 51.7
19:40 1017 30.03 846 24.98 23.3 73.9 45 11 51.8
19:45 1017 30.03 846 24.98 22.9 73.2 48 11.4 52.5
19:50 1017 30.03 846 24.98 22.7 72.9 53 12.8 55
19:55 1017 30.03 846 24.98 22.5 72.5 55 13.3 55.9
20:00 1017 30.03 846 24.98 21.8 71.2 56 12.8 55
20:05 1017 30.03 846 24.98 21.5 70.7 57 12.6 54.8
20:10 1017 30.03 846 24.98 21.5 70.6 54 11.8 53.2
20:15 1017 30.03 846 24.98 21.5 70.6 56 12.4 54.4
20:20 1017 30.03 846 24.98 21.6 70.8 55 12.2 54
20:25 1017 30.03 846 24.98 21.6 70.9 51 11.1 52
20:30 1017 30.03 846 24.98 21.5 70.6 53 11.7 53.1
20:35 1017 30.03 846 24.98 21.2 70.1 55 11.9 53.4
20:40 1017 30.03 846 24.98 21.1 70 52 10.9 51.6
20:45 1017 30.03 846 24.98 21 69.8 55 11.8 53.3
20:50 1017 30.03 846 24.98 20.8 69.4 55 11.4 52.5
20:55 1017 30.03 846 24.98 20.7 69.2 61 13 55.3
21:00 1017 30.03 846 24.98 20.6 69.1 54 11 51.8
21:05 1017 30.03 846 24.98 20.7 69.2 51 10.2 50.4
21:10 1017 30.03 846 24.98 20.7 69.3 51 10.4 50.8
21:15 1017 30.03 846 24.98 20.6 69 54 11.2 52.1
21:20 1017 30.03 846 24.98 20.2 68.4 54 10.9 51.5
21:25 1017 30.03 846 24.98 20.1 68.1 54 10.5 51
21:30 1017 30.03 846 24.98 20.1 68.2 51 9.9 49.8
21:35 1017 30.03 846 24.98 20.2 68.3 50 9.7 49.4
21:40 1017 30.03 846 24.98 20.1 68.3 52 10.1 50.1
21:45 1017 30.03 846 24.98 20 67.9 52 9.9 49.8
21:50 1017 30.03 846 24.98 19.8 67.7 53 10.2 50.3
21:55 1017 30.03 846 24.98 19.6 67.3 53 9.9 49.9
22:00 1017 30.03 846 24.98 19.6 67.2 53 9.9 49.9
22:05 1017 30.03 846 24.98 19.7 67.5 51 9.4 49
22:10 1017 30.03 846 24.98 19.9 67.8 49 9 48.2
22:15 1017 30.03 846 24.98 20.1 68.1 50 9.5 49
22:20 1017 30.03 846 24.98 19.9 67.8 52 9.8 49.7
22:25 1017 30.03 846 24.98 19.5 67.1 51 9.4 48.8
22:30 1017 30.03 846 24.98 19.6 67.3 52 9.6 49.2
22:35 1017 30.03 846 24.98 19.6 67.2 52 9.7 49.4
22:40 1017 30.03 846 24.98 19.6 67.2 51 9.3 48.8
22:45 1017 30.03 846 24.98 19.9 67.8 50 9.2 48.6
22:50 1017 30.03 847 25.01 20.2 68.4 48 8.9 48.1
22:55 1017 30.03 847 25.01 20.3 68.5 48 9 48.2
23:00 1017 30.03 847 25.01 20.3 68.5 48 9 48.1
23:05 1017 30.03 847 25.01 20.3 68.6 48 9 48.2
23:10 1017 30.03 847 25.01 20.4 68.7 47 8.9 48
23:15 1018 30.06 847 25.01 20.4 68.8 47 8.8 47.8
23:20 1018 30.06 847 25.01 20.5 68.8 48 9.2 48.6
23:25 1018 30.06 847 25.01 20.4 68.6 48 9 48.3
23:30 1018 30.06 847 25.01 20.3 68.6 48 9.2 48.6
23:35 1018 30.06 847 25.01 20 68.1 54 10.5 51
23:40 1018 30.06 847 25.01 19.6 67.4 56 10.7 51.3
23:45 1018 30.06 847 25.01 19.3 66.8 57 10.6 51.1
23:50 1018 30.06 847 25.01 19.2 66.5 58 10.9 51.7
23:55 1018 30.06 847 25.01 18.7 65.6 60 10.8 51.5
24:00 1018 30.06 847 25.01 19 66.1 58 10.7 51.2